createdAt,value
2019-06-10T00:02:07.157Z,17.80
2019-06-10T00:04:37.002Z,17.67
2019-06-10T00:07:07.391Z,17.70
2019-06-10T00:09:37.235Z,17.64
2019-06-10T00:12:08.180Z,17.69
2019-06-10T00:14:38.812Z,17.62
2019-06-10T00:17:10.815Z,17.71
2019-06-10T00:19:40.962Z,17.67
2019-06-10T00:22:11.659Z,17.65
2019-06-10T00:24:41.473Z,17.68
2019-06-10T00:27:11.721Z,17.64
2019-06-10T00:29:41.729Z,17.61
2019-06-10T00:32:13.231Z,17.51
2019-06-10T00:34:42.799Z,17.55
2019-06-10T00:37:14.487Z,17.58
2019-06-10T00:39:43.568Z,17.56
2019-06-10T00:42:15.188Z,17.62
2019-06-10T00:44:45.021Z,17.53
2019-06-10T00:47:15.477Z,17.53
2019-06-10T00:49:45.152Z,17.61
2019-06-10T00:52:14.654Z,17.44
2019-06-10T00:54:44.191Z,17.51
2019-06-10T00:57:13.871Z,17.53
2019-06-10T00:59:43.513Z,17.46
2019-06-10T01:02:14.486Z,17.47
2019-06-10T01:04:45.082Z,17.45
2019-06-10T01:07:15.048Z,17.44
2019-06-10T01:09:44.706Z,17.43
2019-06-10T01:12:15.013Z,17.25
2019-06-10T01:14:44.710Z,17.32
2019-06-10T01:17:15.505Z,17.28
2019-06-10T01:19:45.344Z,17.19
2019-06-10T01:22:15.899Z,17.15
2019-06-10T01:24:46.115Z,17.11
2019-06-10T01:27:16.008Z,17.12
2019-06-10T01:29:45.522Z,17.21
2019-06-10T01:32:15.164Z,17.22
2019-06-10T01:34:44.738Z,17.17
2019-06-10T01:37:14.799Z,17.08
2019-06-10T01:39:45.557Z,17.13
2019-06-10T01:42:15.896Z,17.17
2019-06-10T01:44:46.385Z,17.08
2019-06-10T01:47:17.419Z,17.18
2019-06-10T01:49:47.180Z,17.22
2019-06-10T01:52:18.221Z,17.22
2019-06-10T01:54:47.999Z,17.12
2019-06-10T01:57:18.649Z,17.20
2019-06-10T01:59:50.746Z,17.22
2019-06-10T02:02:23.775Z,17.23
2019-06-10T02:04:52.805Z,17.26
2019-06-10T02:07:23.252Z,17.29
2019-06-10T02:09:52.785Z,17.30
2019-06-10T02:12:24.013Z,17.23
2019-06-10T02:14:53.949Z,17.24
2019-06-10T02:17:24.094Z,17.26
2019-06-10T02:19:53.810Z,17.27
2019-06-10T02:22:24.497Z,17.20
2019-06-10T02:24:54.596Z,17.22
2019-06-10T02:27:24.199Z,17.24
2019-06-10T02:29:53.700Z,17.26
2019-06-10T02:32:31.829Z,17.21
2019-06-10T02:35:08.207Z,17.27
2019-06-10T02:37:32.695Z,17.23
2019-06-10T02:39:57.178Z,17.28
2019-06-10T02:42:35.587Z,17.34
2019-06-10T02:45:03.735Z,17.26
2019-06-10T02:47:37.877Z,17.31
2019-06-10T02:50:09.233Z,17.24
2019-06-10T02:52:39.143Z,17.21
2019-06-10T02:55:08.998Z,17.20
2019-06-10T02:57:40.292Z,17.25
2019-06-10T03:00:20.913Z,17.23
2019-06-10T03:02:45.173Z,17.12
2019-06-10T03:05:18.815Z,17.20
2019-06-10T03:07:47.708Z,17.23
2019-06-10T03:10:19.534Z,17.15
2019-06-10T03:12:48.683Z,17.18
2019-06-10T03:15:18.328Z,17.22
2019-06-10T03:17:47.877Z,17.27
2019-06-10T03:20:17.922Z,17.25
2019-06-10T03:22:47.629Z,17.20
2019-06-10T03:25:18.288Z,17.19
2019-06-10T03:27:48.021Z,17.08
2019-06-10T03:30:26.752Z,17.18
2019-06-10T03:32:49.606Z,17.13
2019-06-10T03:35:19.333Z,17.03
2019-06-10T03:37:49.321Z,16.97
2019-06-10T03:40:18.894Z,16.95
2019-06-10T03:42:48.498Z,16.95
2019-06-10T03:45:19.211Z,16.96
2019-06-10T03:47:48.824Z,16.95
2019-06-10T03:50:19.325Z,17.04
2019-06-10T03:52:48.905Z,16.96
2019-06-10T03:55:19.305Z,17.01
2019-06-10T03:57:49.349Z,16.99
2019-06-10T04:00:19.538Z,16.92
2019-06-10T04:02:49.202Z,16.56
2019-06-10T04:05:19.442Z,16.62
2019-06-10T04:07:49.100Z,16.75
2019-06-10T04:10:19.570Z,16.76
2019-06-10T04:12:49.225Z,16.65
2019-06-10T04:15:19.735Z,16.74
2019-06-10T04:17:49.386Z,16.75
2019-06-10T04:20:19.763Z,16.70
2019-06-10T04:22:49.383Z,16.81
2019-06-10T04:25:19.802Z,16.84
2019-06-10T04:27:49.528Z,16.88
2019-06-10T04:30:20.096Z,16.94
2019-06-10T04:32:49.835Z,16.93
2019-06-10T04:35:20.995Z,16.90
2019-06-10T04:37:52.055Z,16.91
2019-06-10T04:40:24.438Z,16.98
2019-06-10T04:42:53.091Z,17.00
2019-06-10T04:45:23.621Z,16.91
2019-06-10T04:47:53.858Z,16.87
2019-06-10T04:50:34.537Z,16.84
2019-06-10T04:52:54.630Z,16.83
2019-06-10T04:55:26.189Z,16.80
2019-06-10T04:57:55.886Z,16.80
2019-06-10T05:00:27.572Z,16.77
2019-06-10T05:02:56.781Z,16.73
2019-06-10T05:05:27.275Z,16.67
2019-06-10T05:07:57.611Z,16.58
2019-06-10T05:10:28.363Z,16.51
2019-06-10T05:12:58.376Z,16.65
2019-06-10T05:15:29.830Z,16.68
2019-06-10T05:17:59.141Z,16.66
2019-06-10T05:20:46.767Z,16.73
2019-06-10T05:23:02.160Z,16.79
2019-06-10T05:25:32.732Z,16.81
2019-06-10T05:28:02.944Z,16.74
2019-06-10T05:30:34.104Z,16.80
2019-06-10T05:33:03.763Z,16.85
2019-06-10T05:35:34.057Z,16.88
2019-06-10T05:38:03.826Z,16.90
2019-06-10T05:40:34.241Z,16.83
2019-06-10T05:43:03.957Z,16.80
2019-06-10T05:45:35.151Z,16.80
2019-06-10T05:48:04.854Z,16.89
2019-06-10T05:50:35.025Z,16.96
2019-06-10T05:53:05.048Z,16.96
2019-06-10T05:55:35.272Z,17.04
2019-06-10T05:58:05.005Z,17.09
2019-06-10T06:00:35.501Z,17.09
2019-06-10T06:03:05.262Z,16.96
2019-06-10T06:05:37.648Z,17.04
2019-06-10T06:08:08.863Z,17.12
2019-06-10T06:10:37.947Z,17.18
2019-06-10T06:13:07.459Z,17.19
2019-06-10T06:15:38.074Z,17.16
2019-06-10T06:18:10.737Z,16.94
2019-06-10T06:20:39.167Z,17.04
2019-06-10T06:23:09.282Z,17.03
2019-06-10T06:25:42.917Z,16.85
2019-06-10T06:28:12.433Z,16.98
2019-06-10T06:30:42.305Z,17.00
2019-06-10T06:33:13.758Z,17.02
2019-06-10T06:35:46.392Z,17.08
2019-06-10T06:38:14.504Z,17.10
2019-06-10T06:40:44.712Z,17.14
2019-06-10T06:43:14.224Z,17.23
2019-06-10T06:45:43.823Z,17.28
2019-06-10T06:48:13.339Z,17.28
2019-06-10T06:51:00.327Z,17.20
2019-06-10T06:53:24.563Z,17.25
2019-06-10T06:55:46.367Z,17.31
2019-06-10T06:58:16.224Z,17.28
2019-06-10T07:01:00.106Z,17.34
2019-06-10T07:03:16.997Z,17.35
2019-06-10T07:05:47.442Z,17.33
2019-06-10T07:08:17.796Z,17.34
2019-06-10T07:10:48.777Z,17.37
2019-06-10T07:13:18.289Z,17.41
2019-06-10T07:15:48.701Z,17.44
2019-06-10T07:18:18.281Z,17.45
2019-06-10T07:20:47.820Z,17.47
2019-06-10T07:23:17.445Z,17.49
2019-06-10T07:25:47.694Z,17.45
2019-06-10T07:28:17.443Z,17.46
2019-06-10T07:30:51.674Z,17.35
2019-06-10T07:33:18.501Z,17.38
2019-06-10T07:35:48.034Z,17.39
2019-06-10T07:38:17.538Z,17.33
2019-06-10T07:40:47.083Z,17.30
2019-06-10T07:43:16.850Z,17.18
2019-06-10T07:45:48.038Z,17.05
2019-06-10T07:48:17.982Z,17.13
2019-06-10T07:50:47.580Z,17.11
2019-06-10T07:53:17.090Z,17.08
2019-06-10T07:55:46.766Z,17.17
2019-06-10T07:58:16.325Z,17.23
2019-06-10T08:00:48.286Z,17.31
2019-06-10T08:03:17.571Z,17.34
2019-06-10T08:05:47.309Z,17.22
2019-06-10T08:08:17.386Z,17.23
2019-06-10T08:10:48.166Z,17.22
2019-06-10T08:13:17.924Z,17.31
2019-06-10T08:15:48.395Z,17.36
2019-06-10T08:18:18.319Z,17.37
2019-06-10T08:20:48.278Z,17.43
2019-06-10T08:23:20.089Z,17.53
2019-06-10T08:25:54.622Z,17.61
2019-06-10T08:28:22.959Z,17.64
2019-06-10T08:30:53.523Z,17.63
2019-06-10T08:33:23.239Z,17.65
2019-06-10T08:35:59.428Z,17.71
2019-06-10T08:38:24.202Z,17.83
2019-06-10T08:40:54.170Z,17.89
2019-06-10T08:43:23.752Z,17.99
2019-06-10T08:45:53.639Z,18.08
2019-06-10T08:48:23.481Z,18.05
2019-06-10T08:50:54.049Z,18.07
2019-06-10T08:53:23.689Z,18.16
2019-06-10T08:55:53.799Z,18.18
2019-06-10T08:58:23.749Z,18.18
2019-06-10T09:00:53.966Z,18.21
2019-06-10T09:03:23.896Z,18.20
2019-06-10T09:05:56.245Z,18.17
2019-06-10T09:08:26.348Z,18.17
2019-06-10T09:10:55.992Z,18.21
2019-06-10T09:13:25.686Z,18.25
2019-06-10T09:16:11.803Z,18.28
2019-06-10T09:18:27.003Z,18.31
2019-06-10T09:20:56.562Z,18.35
2019-06-10T09:23:26.342Z,18.39
2019-06-10T09:25:57.681Z,18.45
2019-06-10T09:28:27.513Z,18.46
2019-06-10T09:30:59.455Z,18.50
2019-06-10T09:33:28.345Z,18.56
2019-06-10T09:35:57.874Z,18.64
2019-06-10T09:38:27.391Z,18.73
2019-06-10T09:41:01.670Z,18.74
2019-06-10T09:43:28.295Z,18.85
2019-06-10T09:45:58.176Z,18.98
2019-06-10T09:48:27.816Z,19.00
2019-06-10T09:50:59.077Z,19.04
2019-06-10T09:53:38.988Z,19.01
2019-06-10T09:56:00.276Z,19.14
2019-06-10T09:58:29.931Z,19.16
2019-06-10T10:01:02.963Z,19.18
2019-06-10T10:03:32.910Z,19.34
2019-06-10T10:06:14.466Z,19.27
2019-06-10T10:08:37.859Z,19.37
2019-06-10T10:11:07.407Z,19.35
2019-06-10T10:13:36.907Z,19.37
2019-06-10T10:16:06.691Z,19.35
2019-06-10T10:18:36.550Z,19.36
2019-06-10T10:21:06.234Z,19.55
2019-06-10T10:23:50.188Z,19.63
2019-06-10T10:26:07.060Z,19.69
2019-06-10T10:28:36.732Z,19.83
2019-06-10T10:31:06.350Z,19.92
2019-06-10T10:33:35.880Z,19.94
2019-06-10T10:36:05.533Z,19.97
2019-06-10T10:38:35.110Z,20.03
2019-06-10T10:41:05.141Z,19.98
2019-06-10T10:43:37.673Z,20.02
2019-06-10T10:46:06.530Z,20.11
2019-06-10T10:48:36.080Z,20.13
2019-06-10T10:51:05.748Z,20.16
2019-06-10T10:53:35.359Z,20.25
2019-06-10T10:56:05.005Z,20.36
2019-06-10T10:58:34.536Z,20.39
2019-06-10T11:01:04.811Z,20.37
2019-06-10T11:03:34.841Z,20.48
2019-06-10T11:06:04.418Z,20.49
2019-06-10T11:08:34.058Z,20.70
2019-06-10T11:11:05.131Z,20.88
2019-06-10T11:13:37.320Z,20.81
2019-06-10T11:16:07.180Z,20.73
2019-06-10T11:18:36.720Z,20.67
2019-06-10T11:21:06.378Z,20.68
2019-06-10T11:23:36.181Z,20.65
2019-06-10T11:26:06.433Z,20.62
2019-06-10T11:28:36.097Z,20.64
2019-06-10T11:31:06.247Z,20.62
2019-06-10T11:33:35.783Z,20.55
2019-06-10T11:36:05.530Z,20.45
2019-06-10T11:38:35.076Z,20.43
2019-06-10T11:41:04.586Z,20.44
2019-06-10T11:43:34.219Z,20.44
2019-06-10T11:46:07.431Z,20.49
2019-06-10T11:48:35.215Z,20.53
2019-06-10T11:51:05.068Z,20.53
2019-06-10T11:53:34.862Z,20.51
2019-06-10T11:56:04.890Z,20.47
2019-06-10T11:58:34.874Z,20.47
2019-06-10T12:01:04.456Z,20.45
2019-06-10T12:03:34.120Z,20.51
2019-06-10T12:06:05.424Z,20.42
2019-06-10T12:08:35.353Z,20.42
2019-06-10T12:11:04.926Z,20.36
2019-06-10T12:13:34.891Z,20.29
2019-06-10T12:17:05.192Z,20.26
2019-06-10T12:18:35.891Z,20.26
2019-06-10T12:21:05.626Z,20.24
2019-06-10T12:23:35.290Z,20.25
2019-06-10T12:26:05.483Z,20.26
2019-06-10T12:28:35.465Z,20.22
2019-06-10T12:31:07.255Z,20.15
2019-06-10T12:33:36.334Z,20.22
2019-06-10T12:36:07.548Z,20.15
2019-06-10T12:38:37.621Z,20.15
2019-06-10T12:41:09.945Z,20.13
2019-06-10T12:43:38.455Z,20.16
2019-06-10T12:46:08.036Z,20.15
2019-06-10T12:48:37.576Z,20.01
2019-06-10T12:51:09.458Z,20.01
2019-06-10T12:53:38.353Z,19.99
2019-06-10T12:56:10.903Z,20.01
2019-06-10T12:58:39.193Z,20.03
2019-06-10T13:01:08.776Z,20.03
2019-06-10T13:03:38.306Z,20.14
2019-06-10T13:06:09.675Z,20.12
2019-06-10T13:08:42.636Z,20.20
2019-06-10T13:11:13.277Z,20.12
2019-06-10T13:13:43.038Z,20.07
2019-06-10T13:16:13.978Z,20.10
2019-06-10T13:18:44.096Z,20.17
2019-06-10T13:21:17.572Z,20.18
2019-06-10T13:23:44.942Z,20.04
2019-06-10T13:26:16.749Z,19.97
2019-06-10T13:28:45.707Z,19.93
2019-06-10T13:31:15.609Z,19.93
2019-06-10T13:33:45.680Z,19.96
2019-06-10T13:36:15.379Z,20.03
2019-06-10T13:38:45.035Z,20.09
2019-06-10T13:41:14.954Z,20.12
2019-06-10T13:43:44.714Z,20.11
2019-06-10T13:46:14.380Z,20.07
2019-06-10T13:48:44.577Z,19.93
2019-06-10T13:51:15.775Z,19.90
2019-06-10T13:53:46.413Z,19.85
2019-06-10T13:56:37.808Z,19.77
2019-06-10T13:58:47.453Z,19.64
2019-06-10T14:01:21.479Z,19.48
2019-06-10T14:03:48.298Z,19.53
2019-06-10T14:06:37.106Z,19.59
2019-06-10T14:08:49.060Z,19.56
2019-06-10T14:11:19.178Z,19.53
2019-06-10T14:13:49.190Z,19.58
2019-06-10T14:16:18.795Z,19.60
2019-06-10T14:18:48.386Z,19.63
2019-06-10T14:21:18.738Z,19.66
2019-06-10T14:23:48.395Z,19.70
2019-06-10T14:26:25.600Z,19.73
2019-06-10T14:28:49.169Z,19.68
2019-06-10T14:31:38.349Z,19.67
2019-06-10T14:33:49.941Z,19.54
2019-06-10T14:36:22.033Z,19.48
2019-06-10T14:38:50.713Z,19.43
2019-06-10T14:41:23.116Z,19.37
2019-06-10T14:43:53.136Z,19.39
2019-06-10T14:46:23.176Z,19.34
2019-06-10T14:48:53.303Z,19.34
2019-06-10T14:51:23.142Z,19.34
2019-06-10T14:53:52.702Z,19.35
2019-06-10T14:56:23.365Z,19.38
2019-06-10T14:58:53.562Z,19.35
2019-06-10T15:01:25.588Z,19.39
2019-06-10T15:03:54.611Z,19.36
2019-06-10T15:06:24.139Z,19.35
2019-06-10T15:08:54.037Z,19.39
2019-06-10T15:11:27.305Z,19.43
2019-06-10T15:13:54.876Z,19.50
2019-06-10T15:16:24.480Z,19.49
2019-06-10T15:19:08.270Z,19.51
2019-06-10T15:21:25.660Z,19.54
2019-06-10T15:23:55.456Z,19.50
2019-06-10T15:26:24.993Z,19.53
2019-06-10T15:28:54.506Z,19.56
2019-06-10T15:31:24.045Z,19.55
2019-06-10T15:33:53.568Z,19.59
2019-06-10T15:36:23.239Z,19.58
2019-06-10T15:38:52.768Z,19.55
2019-06-10T15:41:24.617Z,19.48
2019-06-10T15:43:53.825Z,19.48
2019-06-10T15:46:23.409Z,19.43
2019-06-10T15:48:54.156Z,19.42
2019-06-10T15:51:26.079Z,19.41
2019-06-10T15:53:55.495Z,19.42
2019-06-10T15:56:38.670Z,19.43
2019-06-10T15:58:56.405Z,19.45
2019-06-10T16:01:27.429Z,19.50
2019-06-10T16:03:57.126Z,19.51
2019-06-10T16:06:26.726Z,19.47
2019-06-10T16:08:56.408Z,19.49
2019-06-10T16:11:27.170Z,19.53
2019-06-10T16:13:56.933Z,19.55
2019-06-10T16:16:26.440Z,19.56
2019-06-10T16:18:55.975Z,19.49
2019-06-10T16:21:25.493Z,19.56
2019-06-10T16:23:55.102Z,19.54
2019-06-10T16:26:26.717Z,19.46
2019-06-10T16:28:55.951Z,19.41
2019-06-10T16:31:27.329Z,19.41
2019-06-10T16:33:56.804Z,19.44
2019-06-10T16:36:28.011Z,19.41
2019-06-10T16:38:57.580Z,19.25
2019-06-10T16:41:28.098Z,19.25
2019-06-10T16:43:57.872Z,19.22
2019-06-10T16:46:29.096Z,19.17
2019-06-10T16:48:58.754Z,19.16
2019-06-10T16:51:29.795Z,19.14
2019-06-10T16:53:59.630Z,19.16
2019-06-10T16:56:30.943Z,19.09
2019-06-10T16:59:02.822Z,19.05
2019-06-10T17:01:33.211Z,19.03
2019-06-10T17:04:02.923Z,19.05
2019-06-10T17:06:32.805Z,19.04
2019-06-10T17:09:02.897Z,19.06
2019-06-10T17:11:32.433Z,19.02
2019-06-10T17:14:03.089Z,19.13
2019-06-10T17:16:32.919Z,19.10
2019-06-10T17:19:02.576Z,19.07
2019-06-10T17:21:34.609Z,19.07
2019-06-10T17:24:03.633Z,19.04
2019-06-10T17:26:37.889Z,19.09
2019-06-10T17:29:04.689Z,19.17
2019-06-10T17:31:35.127Z,19.10
2019-06-10T17:34:04.958Z,19.08
2019-06-10T17:36:35.404Z,18.98
2019-06-10T17:39:08.925Z,18.98
2019-06-10T17:41:38.944Z,18.89
2019-06-10T17:44:09.075Z,18.89
2019-06-10T17:46:38.584Z,18.89
2019-06-10T17:49:08.118Z,18.94
2019-06-10T17:51:37.698Z,18.90
2019-06-10T17:54:07.304Z,18.85
2019-06-10T17:56:36.821Z,18.86
2019-06-10T17:59:06.371Z,18.82
2019-06-10T18:01:35.953Z,18.82
2019-06-10T18:04:05.749Z,18.83
2019-06-10T18:06:36.468Z,18.84
2019-06-10T18:09:08.056Z,18.82
2019-06-10T18:11:38.177Z,18.79
2019-06-10T18:14:08.239Z,18.79
2019-06-10T18:16:37.746Z,18.76
2019-06-10T18:19:07.354Z,18.67
2019-06-10T18:21:36.935Z,18.66
2019-06-10T18:24:08.436Z,18.69
2019-06-10T18:26:38.072Z,18.70
2019-06-10T18:29:09.235Z,18.72
2019-06-10T18:31:39.360Z,18.58
2019-06-10T18:34:08.915Z,18.56
2019-06-10T18:36:38.555Z,18.59
2019-06-10T18:39:08.920Z,18.68
2019-06-10T18:41:40.085Z,18.81
2019-06-10T18:44:21.811Z,18.78
2019-06-10T18:46:43.333Z,18.82
2019-06-10T18:49:13.570Z,18.75
2019-06-10T18:51:43.655Z,18.77
2019-06-10T18:54:13.372Z,18.75
2019-06-10T18:56:43.171Z,18.71
2019-06-10T18:59:19.595Z,18.70
2019-06-10T19:01:44.197Z,18.65
2019-06-10T19:04:13.734Z,18.66
2019-06-10T19:06:43.348Z,18.63
2019-06-10T19:09:13.313Z,18.63
2019-06-10T19:11:43.509Z,18.65
2019-06-10T19:14:13.219Z,18.64
2019-06-10T19:16:43.053Z,18.60
2019-06-10T19:19:12.911Z,18.62
2019-06-10T19:21:44.150Z,18.61
2019-06-10T19:24:13.882Z,18.62
2019-06-10T19:26:45.194Z,18.65
2019-06-10T19:29:30.020Z,18.65
2019-06-10T19:31:46.575Z,18.67
2019-06-10T19:34:16.134Z,18.64
2019-06-10T19:36:45.676Z,18.63
2019-06-10T19:39:15.187Z,18.67
2019-06-10T19:41:47.419Z,18.62
2019-06-10T19:44:16.316Z,18.62
2019-06-10T19:46:45.949Z,18.69
2019-06-10T19:49:15.455Z,18.74
2019-06-10T19:51:46.916Z,18.66
2019-06-10T19:54:16.238Z,18.64
2019-06-10T19:56:45.788Z,18.63
2019-06-10T19:59:15.303Z,18.63
2019-06-10T20:01:47.820Z,18.60
2019-06-10T20:04:18.138Z,18.60
2019-06-10T20:06:50.660Z,18.61
2019-06-10T20:09:19.238Z,18.60
2019-06-10T20:11:48.781Z,18.55
2019-06-10T20:14:18.295Z,18.51
2019-06-10T20:16:48.226Z,18.46
2019-06-10T20:19:17.914Z,18.51
2019-06-10T20:21:48.969Z,18.64
2019-06-10T20:24:18.734Z,18.53
2019-06-10T20:26:48.267Z,18.54
2019-06-10T20:29:17.773Z,18.52
2019-06-10T20:31:48.853Z,18.53
2019-06-10T20:34:19.655Z,18.54
2019-06-10T20:36:50.064Z,18.54
2019-06-10T20:39:19.570Z,18.58
2019-06-10T20:41:52.096Z,18.54
2019-06-10T20:44:22.286Z,18.50
2019-06-10T20:46:52.925Z,18.43
2019-06-10T20:49:22.749Z,18.43
2019-06-10T20:52:07.088Z,18.34
2019-06-10T20:54:24.371Z,18.36
2019-06-10T20:56:53.934Z,18.37
2019-06-10T20:59:26.135Z,18.37
2019-06-10T21:01:54.815Z,18.36
2019-06-10T21:04:24.504Z,18.36
2019-06-10T21:06:55.975Z,18.32
2019-06-10T21:09:27.650Z,18.40
2019-06-10T21:11:57.314Z,18.45
2019-06-10T21:14:26.877Z,18.44
2019-06-10T21:16:56.455Z,18.38
2019-06-10T21:19:26.028Z,18.40
2019-06-10T21:21:55.559Z,18.46
2019-06-10T21:24:25.074Z,18.45
2019-06-10T21:26:55.100Z,18.40
2019-06-10T21:29:24.745Z,18.30
2019-06-10T21:31:55.076Z,18.27
2019-06-10T21:34:24.826Z,18.25
2019-06-10T21:36:54.716Z,18.20
2019-06-10T21:39:24.552Z,18.24
2019-06-10T21:41:55.138Z,18.29
2019-06-10T21:44:24.651Z,18.39
2019-06-10T21:46:54.159Z,18.34
2019-06-10T21:49:24.010Z,18.28
2019-06-10T21:51:56.778Z,18.24
2019-06-10T21:54:24.840Z,18.24
2019-06-10T21:56:55.526Z,18.22
2019-06-10T21:59:25.364Z,18.25
2019-06-10T22:01:54.884Z,18.21
2019-06-10T22:04:24.409Z,18.21
2019-06-10T22:06:55.932Z,18.24
2019-06-10T22:09:25.192Z,18.20
2019-06-10T22:11:55.914Z,18.15
2019-06-10T22:14:25.631Z,18.15
2019-06-10T22:16:56.476Z,18.10
2019-06-10T22:19:26.212Z,18.07
2019-06-10T22:21:56.741Z,18.21
2019-06-10T22:24:26.775Z,18.15
2019-06-10T22:26:56.276Z,18.06
2019-06-10T22:29:26.077Z,18.03
2019-06-10T22:31:57.194Z,18.06
2019-06-10T22:34:26.996Z,18.11
2019-06-10T22:36:57.651Z,18.04
2019-06-10T22:39:27.407Z,18.03
2019-06-10T22:41:57.161Z,18.10
2019-06-10T22:44:26.900Z,18.13
2019-06-10T22:46:57.226Z,18.02
2019-06-10T22:49:27.454Z,18.00
2019-06-10T22:52:00.050Z,17.96
2019-06-10T22:54:28.286Z,17.94
2019-06-10T22:56:58.408Z,17.94
2019-06-10T22:59:28.217Z,17.93
2019-06-10T23:01:58.723Z,17.95
2019-06-10T23:04:28.978Z,17.97
2019-06-10T23:06:59.896Z,17.95
2019-06-10T23:09:29.883Z,17.94
2019-06-10T23:11:59.384Z,17.92
2019-06-10T23:14:28.919Z,17.95
2019-06-10T23:16:59.920Z,17.99
2019-06-10T23:19:29.681Z,17.96
2019-06-10T23:22:00.125Z,17.90
2019-06-10T23:24:32.261Z,17.89
2019-06-10T23:27:03.399Z,17.89
2019-06-10T23:29:33.202Z,17.94
2019-06-10T23:32:06.862Z,17.90
2019-06-10T23:34:33.948Z,17.92
2019-06-10T23:37:03.529Z,17.95
2019-06-10T23:39:33.624Z,17.97
2019-06-10T23:42:04.181Z,17.95
2019-06-10T23:44:34.552Z,17.93
2019-06-10T23:47:04.363Z,17.96
2019-06-10T23:49:34.081Z,17.94
2019-06-10T23:52:05.349Z,17.92
2019-06-10T23:54:34.843Z,17.92
2019-06-10T23:57:06.053Z,17.89
2019-06-10T23:59:35.619Z,17.89
